Time;durP1;ratioP1;P1;durP2;ratioP2;P2;SDS_P1;SDS_P2;PMS_P1;PMS_P2;Temp;Humidity;BMP_temperature;BMP_pressure;BME280_temperature;BME280_humidity;BME280_pressure;Samples;Min_cycle;Max_cycle;Signal;HPM_P1;HPM_P2
2022/06/02 00:01:55;;;;;;;7.10;6.40;;;13.50;3.30;;;;;;4979328;28;20171;-86
2022/06/02 00:04:27;;;;;;;8.37;6.40;;;13.50;9.30;;;;;;4979037;28;20177;-87
2022/06/02 00:07:14;;;;;;;8.07;6.33;;;13.30;11.80;;;;;;4979748;28;20176;-85
2022/06/02 00:09:55;;;;;;;7.10;6.40;;;13.20;17.20;;;;;;4998185;28;20171;-87
2022/06/02 00:12:24;;;;;;;7.63;6.53;;;13.00;21.80;;;;;;5004957;28;20178;-86
2022/06/02 00:15:13;;;;;;;8.90;7.20;;;12.90;24.40;;;;;;4981036;28;20612;-85
2022/06/02 00:17:42;;;;;;;7.97;7.07;;;12.90;27.00;;;;;;4997334;28;20155;-84
2022/06/02 00:20:22;;;;;;;7.77;7.07;;;12.90;27.20;;;;;;5020506;28;20152;-85
2022/06/02 00:22:53;;;;;;;8.07;7.23;;;12.90;28.00;;;;;;5003161;28;20272;-84
2022/06/02 00:25:21;;;;;;;8.80;7.47;;;13.10;23.60;;;;;;5003174;28;20221;-85
2022/06/02 00:28:20;;;;;;;9.33;8.43;;;13.20;19.60;;;;;;5017469;28;20181;-86
2022/06/02 00:31:29;;;;;;;9.13;7.70;;;13.30;20.00;;;;;;5007256;28;20167;-85
2022/06/02 00:34:32;;;;;;;10.57;8.43;;;13.20;20.30;;;;;;4990597;28;20215;-87
2022/06/02 00:37:21;;;;;;;8.47;7.60;;;13.30;18.30;;;;;;4981472;28;20257;-86
2022/06/02 00:39:48;;;;;;;8.83;7.87;;;13.20;18.80;;;;;;4979404;28;20175;-87
2022/06/02 00:42:49;;;;;;;9.23;8.27;;;13.00;21.20;;;;;;4979002;28;20175;-88
2022/06/02 00:45:18;;;;;;;9.30;8.33;;;12.80;26.80;;;;;;4978288;28;20174;-86
2022/06/02 00:47:55;;;;;;;10.07;8.27;;;12.80;31.30;;;;;;4977896;28;20654;-87
2022/06/02 00:50:36;;;;;;;11.70;8.97;;;12.90;28.80;;;;;;4977748;28;20179;-86
2022/06/02 00:53:07;;;;;;;9.70;8.80;;;13.00;28.00;;;;;;4977801;28;20719;-85
2022/06/02 00:58:45;;;;;;;11.07;9.90;;;13.40;22.70;;;;;;4995219;28;20187;-85
2022/06/02 01:01:14;;;;;;;10.80;9.70;;;13.40;18.50;;;;;;4994845;28;20173;-89
2022/06/02 01:03:48;;;;;;;12.10;9.23;;;13.40;19.30;;;;;;4977472;28;20270;-86
2022/06/02 01:06:37;;;;;;;10.20;9.20;;;13.40;16.60;;;;;;4977212;28;20179;-86
2022/06/02 01:09:11;;;;;;;11.10;9.27;;;13.30;17.50;;;;;;4995165;28;20234;-87
2022/06/02 01:12:04;;;;;;;10.53;8.70;;;13.20;21.90;;;;;;4978174;28;20279;-86
2022/06/02 01:14:58;;;;;;;10.83;9.73;;;13.10;20.40;;;;;;4977298;28;20222;-88
2022/06/02 01:17:42;;;;;;;10.83;9.77;;;13.00;23.60;;;;;;5010053;28;20196;-87
2022/06/02 01:20:31;;;;;;;12.93;10.03;;;13.00;24.90;;;;;;4994865;28;20178;-85
2022/06/02 01:23:00;;;;;;;10.60;9.50;;;12.90;28.40;;;;;;4977625;28;20643;-85
2022/06/02 01:25:51;;;;;;;11.27;10.17;;;12.80;32.00;;;;;;4977606;28;20215;-88
2022/06/02 01:28:31;;;;;;;11.30;10.10;;;12.80;34.90;;;;;;4979659;28;20170;-86
2022/06/02 01:31:12;;;;;;;10.07;9.07;;;12.80;33.40;;;;;;4978875;28;20202;-86
2022/06/02 01:33:47;;;;;;;10.67;9.33;;;12.80;33.00;;;;;;4981728;28;20206;-85
2022/06/02 01:36:19;;;;;;;12.60;9.47;;;12.90;32.70;;;;;;4979303;28;20202;-85
2022/06/02 01:39:04;;;;;;;10.93;9.93;;;12.90;32.60;;;;;;4982547;28;20178;-84
2022/06/02 01:41:30;;;;;;;11.00;9.90;;;12.90;30.90;;;;;;4983459;28;20206;-84
2022/06/02 01:44:16;;;;;;;11.73;10.20;;;12.70;35.30;;;;;;4985114;28;20270;-85
2022/06/02 01:47:01;;;;;;;13.43;11.63;;;12.70;39.90;;;;;;4980420;28;20258;-85
2022/06/02 01:49:30;;;;;;;11.87;10.60;;;12.70;40.70;;;;;;4986599;28;20160;-86
2022/06/02 01:52:35;;;;;;;12.30;11.10;;;12.70;40.40;;;;;;4984227;28;20182;-88
2022/06/02 01:55:14;;;;;;;12.90;11.60;;;12.70;41.50;;;;;;4977221;28;20217;-86
2022/06/02 01:57:59;;;;;;;12.70;11.30;;;12.90;38.20;;;;;;4977584;28;20184;-88
2022/06/02 02:00:27;;;;;;;14.80;12.60;;;13.00;34.00;;;;;;4977402;28;20198;-84
2022/06/02 02:03:07;;;;;;;13.67;12.23;;;13.00;35.70;;;;;;4988071;28;20171;-85
2022/06/02 02:05:42;;;;;;;13.97;12.50;;;12.80;36.90;;;;;;4990956;28;20182;-86
2022/06/02 02:08:26;;;;;;;13.97;12.57;;;12.80;40.70;;;;;;4978749;28;20174;-85
2022/06/02 02:11:07;;;;;;;14.37;12.83;;;12.90;39.80;;;;;;4983088;28;20183;-86
2022/06/02 02:14:09;;;;;;;14.17;12.70;;;12.90;37.50;;;;;;4994015;28;20761;-87
2022/06/02 02:17:13;;;;;;;13.50;12.20;;;13.00;33.40;;;;;;4976422;28;20649;-86
2022/06/02 02:20:07;;;;;;;14.70;11.30;;;13.20;28.60;;;;;;4994417;28;20665;-85
2022/06/02 02:22:33;;;;;;;12.27;10.83;;;13.20;25.80;;;;;;4976622;28;20230;-85
2022/06/02 02:25:02;;;;;;;11.53;8.73;;;13.00;27.20;;;;;;4976592;28;20309;-85
2022/06/02 02:28:04;;;;;;;10.40;8.80;;;12.90;30.00;;;;;;4976159;28;20179;-84
2022/06/02 02:30:45;;;;;;;8.80;7.90;;;12.80;34.20;;;;;;4976755;28;20541;-85
2022/06/02 02:33:32;;;;;;;9.90;8.63;;;12.90;32.40;;;;;;4976957;28;20198;-86
2022/06/02 02:36:10;;;;;;;11.40;8.30;;;12.80;31.60;;;;;;4976907;28;20202;-83
2022/06/02 02:38:51;;;;;;;10.30;8.27;;;12.60;32.40;;;;;;4993734;28;20176;-84
2022/06/02 02:41:46;;;;;;;11.13;8.27;;;12.50;35.90;;;;;;4993542;28;20198;-85
2022/06/02 02:44:19;;;;;;;11.63;8.27;;;12.40;40.40;;;;;;4994233;28;20199;-85
2022/06/02 02:46:57;;;;;;;13.53;9.50;;;12.50;37.90;;;;;;4994276;28;20693;-85
2022/06/02 02:49:33;;;;;;;12.00;8.90;;;12.70;32.90;;;;;;4995171;28;20186;-83
2022/06/02 02:52:13;;;;;;;10.47;9.20;;;12.80;30.10;;;;;;4998458;28;20226;-86
2022/06/02 02:54:50;;;;;;;10.60;8.77;;;12.80;30.20;;;;;;4997046;28;20284;-83
2022/06/02 02:57:34;;;;;;;10.20;9.07;;;12.70;32.20;;;;;;4979636;28;20644;-85
2022/06/02 03:00:06;;;;;;;10.33;9.33;;;12.60;35.20;;;;;;4980095;28;20269;-85
2022/06/02 03:02:53;;;;;;;10.97;9.37;;;12.60;35.70;;;;;;4980749;28;20171;-84
2022/06/02 03:05:37;;;;;;;13.80;9.93;;;12.70;35.80;;;;;;4980635;28;20210;-84
2022/06/02 03:08:12;;;;;;;14.10;10.10;;;12.80;33.30;;;;;;4979678;28;20561;-84
2022/06/02 03:10:42;;;;;;;11.10;9.97;;;12.80;31.90;;;;;;4997410;28;20186;-86
2022/06/02 03:13:45;;;;;;;12.33;9.97;;;12.80;31.60;;;;;;4997926;28;20206;-85
2022/06/02 03:16:13;;;;;;;12.03;9.43;;;12.90;30.00;;;;;;4928528;28;20193;-84
2022/06/02 03:19:08;;;;;;;12.50;9.83;;;12.90;27.20;;;;;;4987676;28;20180;-86
2022/06/02 03:21:40;;;;;;;13.67;10.07;;;12.90;26.60;;;;;;4991706;28;20273;-84
2022/06/02 03:24:29;;;;;;;14.50;10.47;;;12.90;25.80;;;;;;4985729;28;20180;-83
2022/06/02 03:27:03;;;;;;;10.80;9.67;;;12.80;25.80;;;;;;4959363;28;20202;-84
2022/06/02 03:29:41;;;;;;;11.63;9.87;;;12.60;30.50;;;;;;4990292;28;20171;-83
2022/06/02 03:32:18;;;;;;;11.57;9.60;;;12.60;31.60;;;;;;4988848;28;20208;-86
2022/06/02 03:35:04;;;;;;;12.17;10.73;;;12.50;32.10;;;;;;5002727;28;20206;-83
2022/06/02 03:37:36;;;;;;;12.60;10.80;;;12.60;31.70;;;;;;4987914;28;20172;-85
2022/06/02 03:40:22;;;;;;;11.47;10.23;;;12.60;27.80;;;;;;4987581;28;20180;-85
2022/06/02 03:43:10;;;;;;;12.43;11.10;;;12.60;28.90;;;;;;4989412;28;20183;-85
2022/06/02 03:45:56;;;;;;;13.83;11.33;;;12.50;30.10;;;;;;5002270;28;20215;-83
2022/06/02 03:48:43;;;;;;;12.90;11.53;;;12.60;28.00;;;;;;4986115;28;20182;-83
2022/06/02 03:51:26;;;;;;;13.23;11.27;;;12.60;25.80;;;;;;4986052;28;20194;-83
2022/06/02 03:54:23;;;;;;;13.37;11.93;;;12.70;22.80;;;;;;4987291;28;20272;-84
2022/06/02 03:57:13;;;;;;;12.53;11.27;;;12.60;24.90;;;;;;4981509;28;20271;-84
2022/06/02 03:59:59;;;;;;;12.30;11.00;;;12.40;31.90;;;;;;4978941;28;20171;-84
2022/06/02 04:02:53;;;;;;;14.77;12.20;;;12.50;35.60;;;;;;4979207;28;20258;-84
2022/06/02 04:05:55;;;;;;;13.23;11.83;;;12.60;33.50;;;;;;4978698;28;20171;-87
2022/06/02 04:08:49;;;;;;;14.17;12.67;;;12.80;31.30;;;;;;4965494;28;20179;-86
2022/06/02 04:14:38;;;;;;;24.90;12.73;;;12.80;24.00;;;;;;4996215;28;20271;-84
2022/06/02 04:17:30;;;;;;;15.17;13.00;;;12.40;33.50;;;;;;4996041;28;20171;-85
2022/06/02 04:20:35;;;;;;;16.97;13.63;;;12.30;40.10;;;;;;4978905;28;20176;-84
2022/06/02 04:23:25;;;;;;;15.37;13.40;;;12.50;41.00;;;;;;4959921;28;20190;-87
2022/06/02 04:26:10;;;;;;;16.57;13.73;;;12.70;34.80;;;;;;4978524;28;20222;-88
2022/06/02 04:29:03;;;;;;;14.27;12.77;;;12.80;30.90;;;;;;4979629;28;20183;-87
2022/06/02 04:31:53;;;;;;;15.43;13.77;;;13.00;28.40;;;;;;4984487;28;20326;-85
2022/06/02 04:34:22;;;;;;;14.83;13.27;;;13.20;26.60;;;;;;4993090;28;20198;-85
2022/06/02 04:37:20;;;;;;;14.83;12.60;;;13.30;22.10;;;;;;5000942;28;20159;-85
2022/06/02 04:39:49;;;;;;;15.77;12.50;;;13.50;19.00;;;;;;5002409;28;20187;-83
2022/06/02 04:42:38;;;;;;;16.80;13.67;;;13.50;16.40;;;;;;4989581;28;20242;-86
2022/06/02 04:45:21;;;;;;;17.43;13.30;;;13.60;13.10;;;;;;4986407;28;20555;-87
2022/06/02 04:48:16;;;;;;;14.50;11.80;;;13.50;11.70;;;;;;4979397;28;20636;-84
2022/06/02 04:51:03;;;;;;;14.17;12.77;;;13.60;12.50;;;;;;4995945;28;20246;-83
2022/06/02 04:53:41;;;;;;;16.63;12.67;;;13.70;11.50;;;;;;4997582;28;20220;-84
2022/06/02 04:56:21;;;;;;;14.97;11.87;;;13.80;10.10;;;;;;4978614;28;20173;-84
2022/06/02 04:59:11;;;;;;;16.67;12.63;;;14.00;5.20;;;;;;4995403;28;20179;-88
2022/06/02 05:01:52;;;;;;;14.13;11.57;;;14.00;6.10;;;;;;4977953;28;20185;-84
2022/06/02 05:04:51;;;;;;;16.00;12.57;;;14.20;4.70;;;;;;4979482;28;20177;-84
2022/06/02 05:07:34;;;;;;;13.70;11.57;;;14.40;2.00;;;;;;4979740;28;20180;-88
2022/06/02 05:10:21;;;;;;;14.63;11.60;;;14.40;1.00;;;;;;4980489;28;20171;-85
2022/06/02 05:13:19;;;;;;;14.53;12.97;;;14.60;1.00;;;;;;4979922;28;20173;-83
2022/06/02 05:15:56;;;;;;;14.67;12.10;;;14.80;1.00;;;;;;4991310;28;20183;-84
2022/06/02 05:19:09;;;;;;;15.67;13.00;;;14.80;1.00;;;;;;4992261;28;20241;-86
2022/06/02 05:21:56;;;;;;;11.53;10.30;;;14.60;1.00;;;;;;4903351;29;20174;-84
2022/06/02 05:24:45;;;;;;;11.87;10.63;;;14.30;2.20;;;;;;4901094;29;20236;-86
2022/06/02 05:27:37;;;;;;;13.33;10.53;;;14.30;3.70;;;;;;4983208;28;20199;-85
2022/06/02 05:30:08;;;;;;;16.50;11.20;;;14.20;8.20;;;;;;4997079;28;20167;-85
2022/06/02 05:32:37;;;;;;;12.70;11.33;;;14.10;12.40;;;;;;4985793;28;20167;-84
2022/06/02 05:35:29;;;;;;;14.87;11.53;;;14.10;12.20;;;;;;5005104;28;20200;-86
2022/06/02 05:38:00;;;;;;;15.30;13.70;;;14.10;13.70;;;;;;4980944;28;20179;-85
2022/06/02 05:40:38;;;;;;;15.63;12.37;;;14.00;17.70;;;;;;4978439;28;20188;-85
2022/06/02 05:43:25;;;;;;;13.30;11.93;;;14.10;16.20;;;;;;4979620;28;20208;-86
2022/06/02 05:46:15;;;;;;;13.43;11.40;;;14.30;9.20;;;;;;4978191;28;20180;-85
2022/06/02 05:49:02;;;;;;;18.23;12.33;;;14.30;6.50;;;;;;4974906;28;20263;-85
2022/06/02 05:52:07;;;;;;;13.27;11.87;;;14.30;2.30;;;;;;4975483;28;20177;-84
2022/06/02 05:55:08;;;;;;;14.40;12.87;;;14.30;7.20;;;;;;4950919;28;20241;-83
2022/06/02 05:57:41;;;;;;;15.07;13.60;;;14.40;8.60;;;;;;4957529;28;20250;-86
2022/06/02 06:00:26;;;;;;;15.60;14.03;;;14.30;4.00;;;;;;4957559;28;20175;-87
2022/06/02 06:03:13;;;;;;;17.63;13.50;;;14.60;4.40;;;;;;4971958;28;20243;-86
2022/06/02 06:06:07;;;;;;;14.30;12.90;;;14.80;1.00;;;;;;4976649;28;20254;-86
2022/06/02 06:08:58;;;;;;;15.60;13.80;;;14.70;1.00;;;;;;4976561;28;20171;-87
2022/06/02 06:11:26;;;;;;;17.00;15.33;;;14.80;1.00;;;;;;4976604;28;20212;-84
2022/06/02 06:14:08;;;;;;;13.93;12.53;;;14.90;1.00;;;;;;4995544;28;20207;-86
2022/06/02 06:16:39;;;;;;;13.20;10.70;;;15.10;1.00;;;;;;5001804;28;20170;-87
2022/06/02 06:19:53;;;;;;;8.97;8.07;;;15.10;1.00;;;;;;4982107;28;20167;-86
2022/06/02 06:22:54;;;;;;;12.57;11.00;;;15.10;1.00;;;;;;4988830;28;20187;-86
2022/06/02 06:25:43;;;;;;;12.73;10.80;;;15.20;1.00;;;;;;4972284;28;20673;-86
2022/06/02 06:28:16;;;;;;;11.27;10.17;;;15.00;1.00;;;;;;4984593;28;20190;-86
2022/06/02 06:30:54;;;;;;;11.17;10.00;;;15.00;1.00;;;;;;4982010;28;20528;-85
2022/06/02 06:33:38;;;;;;;11.73;10.53;;;14.90;1.00;;;;;;4983569;28;20210;-86
2022/06/02 06:36:16;;;;;;;10.63;9.47;;;14.70;1.00;;;;;;4999944;28;20578;-87
2022/06/02 06:39:44;;;;;;;15.83;9.83;;;14.70;1.00;;;;;;4983713;28;20183;-86
2022/06/02 06:42:15;;;;;;;8.70;7.00;;;14.90;1.00;;;;;;4919117;28;20176;-86
2022/06/02 06:45:03;;;;;;;8.77;6.90;;;15.20;1.00;;;;;;4982586;28;20638;-86
2022/06/02 06:47:42;;;;;;;9.60;8.13;;;15.10;1.00;;;;;;4982656;28;20664;-86
2022/06/02 06:50:28;;;;;;;12.80;9.17;;;15.00;1.00;;;;;;4982342;28;20174;-86
2022/06/02 06:53:35;;;;;;;11.53;9.00;;;14.80;1.00;;;;;;4983109;28;20263;-86
2022/06/02 06:56:19;;;;;;;11.70;10.50;;;14.70;1.00;;;;;;4971911;28;20190;-86
2022/06/02 06:59:17;;;;;;;10.63;8.40;;;14.70;1.00;;;;;;4980596;28;20170;-86
2022/06/02 07:01:58;;;;;;;11.20;10.10;;;14.60;1.00;;;;;;4982871;28;20183;-86
2022/06/02 07:05:10;;;;;;;11.77;10.17;;;14.60;1.00;;;;;;4980710;28;20184;-86
2022/06/02 07:07:51;;;;;;;11.57;10.00;;;14.60;1.00;;;;;;4976185;28;20181;-86
2022/06/02 07:10:29;;;;;;;12.20;11.00;;;14.70;1.00;;;;;;4980398;28;20577;-86
2022/06/02 07:12:56;;;;;;;11.87;10.70;;;14.80;1.00;;;;;;4979869;28;20200;-86
2022/06/02 07:15:36;;;;;;;12.17;10.97;;;14.70;1.00;;;;;;4980520;28;20173;-87
2022/06/02 07:18:19;;;;;;;13.47;12.00;;;14.70;1.00;;;;;;4979796;28;20177;-87
2022/06/02 07:20:50;;;;;;;12.07;10.80;;;15.00;1.00;;;;;;4980146;28;20170;-87
2022/06/02 07:23:38;;;;;;;8.10;7.30;;;15.20;1.00;;;;;;5012441;28;20273;-87
2022/06/02 07:26:28;;;;;;;14.90;8.13;;;15.20;1.00;;;;;;4980867;28;20214;-87
2022/06/02 07:29:13;;;;;;;10.00;9.00;;;15.20;1.00;;;;;;4980541;28;20639;-86
2022/06/02 07:32:05;;;;;;;7.40;6.43;;;15.30;1.00;;;;;;4980444;28;20183;-86
2022/06/02 07:34:53;;;;;;;8.43;7.13;;;15.40;1.00;;;;;;4978736;28;20663;-86
2022/06/02 07:37:18;;;;;;;7.47;6.27;;;15.40;1.00;;;;;;4979801;28;20180;-86
2022/06/02 07:40:24;;;;;;;7.93;6.57;;;15.40;1.00;;;;;;4979536;28;20189;-86
2022/06/02 07:43:27;;;;;;;7.07;6.30;;;15.40;1.00;;;;;;4979465;28;20167;-86
2022/06/02 07:46:02;;;;;;;9.33;7.37;;;15.20;1.00;;;;;;4973837;28;20235;-86
2022/06/02 07:48:31;;;;;;;8.10;7.30;;;15.30;1.00;;;;;;4968384;28;20193;-86
2022/06/02 07:51:09;;;;;;;8.87;6.33;;;15.50;1.00;;;;;;4988201;28;20174;-87
2022/06/02 07:53:53;;;;;;;10.23;7.13;;;15.70;1.00;;;;;;4999608;28;20216;-86
2022/06/02 07:56:24;;;;;;;9.07;7.37;;;15.70;1.00;;;;;;5017455;28;20630;-87
2022/06/02 07:59:34;;;;;;;9.60;6.10;;;15.90;1.00;;;;;;5016747;28;20188;-87
2022/06/02 08:02:30;;;;;;;10.10;8.13;;;16.30;1.00;;;;;;4994449;28;20186;-87
2022/06/02 08:05:28;;;;;;;10.47;7.40;;;16.60;1.00;;;;;;4999994;28;20182;-87
2022/06/02 08:07:59;;;;;;;10.13;6.03;;;16.50;1.00;;;;;;4980796;28;20685;-86
2022/06/02 08:10:45;;;;;;;7.93;6.90;;;16.20;1.00;;;;;;4999873;28;20181;-86
2022/06/02 08:13:25;;;;;;;6.47;4.27;;;16.00;1.00;;;;;;4999025;28;20178;-87
2022/06/02 08:16:12;;;;;;;9.10;5.03;;;15.80;1.00;;;;;;5000556;28;20264;-86
2022/06/02 08:19:03;;;;;;;8.57;6.80;;;15.80;1.00;;;;;;4999506;28;20178;-86
2022/06/02 08:21:33;;;;;;;6.73;5.17;;;15.80;1.00;;;;;;4989953;28;20302;-86
2022/06/02 08:24:15;;;;;;;6.70;5.80;;;15.70;1.00;;;;;;4979283;28;20262;-86
2022/06/02 08:26:57;;;;;;;6.93;6.10;;;15.60;1.00;;;;;;4978786;28;20195;-86
2022/06/02 08:29:32;;;;;;;7.07;6.27;;;15.70;1.00;;;;;;4978840;28;20538;-87
2022/06/02 08:32:10;;;;;;;7.57;6.83;;;15.90;1.00;;;;;;4979903;28;20184;-88
2022/06/02 08:35:08;;;;;;;9.00;6.63;;;16.20;1.00;;;;;;4979522;28;20643;-88
2022/06/02 08:38:06;;;;;;;8.07;6.50;;;16.30;1.00;;;;;;4979846;28;20541;-87
2022/06/02 08:40:50;;;;;;;8.63;6.63;;;16.30;1.00;;;;;;4996995;28;20171;-84
2022/06/02 08:43:29;;;;;;;7.17;6.47;;;16.20;1.00;;;;;;4978829;28;20236;-87
2022/06/02 08:45:55;;;;;;;6.63;5.80;;;16.50;1.00;;;;;;4977980;28;20179;-86
2022/06/02 08:48:58;;;;;;;7.87;5.33;;;16.60;1.00;;;;;;4977573;28;20173;-86
2022/06/02 08:51:46;;;;;;;6.80;4.93;;;16.40;1.00;;;;;;4979668;28;20171;-85
2022/06/02 08:54:35;;;;;;;8.33;5.47;;;16.10;1.00;;;;;;4983486;28;20738;-86
2022/06/02 08:57:15;;;;;;;6.73;5.20;;;16.20;1.00;;;;;;5001337;28;20178;-83
2022/06/02 09:00:09;;;;;;;6.43;5.60;;;16.50;1.00;;;;;;5014630;28;20265;-85
2022/06/02 09:03:21;;;;;;;7.27;5.83;;;16.60;1.00;;;;;;5000976;28;20263;-84
2022/06/02 09:05:59;;;;;;;6.87;5.47;;;16.60;1.00;;;;;;5000560;28;20186;-87
2022/06/02 09:08:36;;;;;;;6.33;5.23;;;16.50;1.00;;;;;;4982801;28;20170;-88
2022/06/02 09:11:36;;;;;;;6.30;5.50;;;16.50;1.00;;;;;;4991948;28;20175;-87
2022/06/02 09:14:29;;;;;;;5.87;5.27;;;17.00;1.00;;;;;;4989726;28;20209;-87
2022/06/02 09:17:07;;;;;;;6.93;5.93;;;17.30;99.90;;;;;;4980749;28;20229;-87
2022/06/02 09:20:06;;;;;;;5.23;4.73;;;17.40;99.90;;;;;;4978483;28;20171;-87
2022/06/02 09:22:48;;;;;;;6.97;5.50;;;17.20;99.90;;;;;;4993055;28;20181;-87
2022/06/02 09:25:54;;;;;;;6.47;5.03;;;17.00;99.90;;;;;;4998456;28;20680;-87
2022/06/02 09:29:03;;;;;;;6.00;5.40;;;16.90;99.90;;;;;;4999210;28;20178;-87
2022/06/02 09:31:44;;;;;;;8.90;5.77;;;16.60;99.90;;;;;;4901802;29;20188;-86
2022/06/02 09:34:41;;;;;;;7.13;5.30;;;16.50;1.00;;;;;;4989247;28;20260;-87
2022/06/02 09:37:10;;;;;;;7.27;5.63;;;16.80;99.90;;;;;;4998338;28;20249;-87
2022/06/02 09:39:44;;;;;;;6.30;5.70;;;17.00;99.90;;;;;;4998442;28;20174;-86
2022/06/02 09:42:25;;;;;;;6.90;6.20;;;17.10;99.90;;;;;;4998224;28;20166;-87
2022/06/02 09:45:24;;;;;;;6.60;5.97;;;17.20;99.90;;;;;;4996816;28;20544;-85
2022/06/02 09:48:18;;;;;;;8.63;6.40;;;17.20;99.90;;;;;;4997515;28;20201;-86
2022/06/02 09:51:07;;;;;;;8.37;6.50;;;17.40;99.90;;;;;;4996703;28;20610;-86
2022/06/02 09:54:01;;;;;;;7.63;5.87;;;17.40;99.90;;;;;;4960679;28;20221;-87
2022/06/02 09:57:02;;;;;;;5.97;5.07;;;17.40;99.90;;;;;;4957896;28;20269;-87
2022/06/02 09:59:34;;;;;;;4.97;4.30;;;17.40;99.90;;;;;;4972388;28;20183;-87
2022/06/02 10:02:11;;;;;;;6.00;5.40;;;17.40;99.90;;;;;;4960503;28;20325;-88
2022/06/02 10:05:13;;;;;;;8.07;4.57;;;17.60;99.90;;;;;;4959211;28;20183;-86
2022/06/02 10:07:39;;;;;;;5.90;5.00;;;17.50;99.90;;;;;;4959440;28;20172;-86
2022/06/02 10:10:14;;;;;;;7.53;5.47;;;17.60;99.90;;;;;;4958097;28;20184;-87
2022/06/02 10:13:01;;;;;;;5.20;4.73;;;17.50;99.90;;;;;;4959164;28;20702;-87
2022/06/02 10:15:48;;;;;;;6.10;5.40;;;17.50;99.90;;;;;;4958232;28;20198;-87
2022/06/02 10:18:20;;;;;;;6.97;5.40;;;17.60;99.90;;;;;;4958040;28;20168;-87
2022/06/02 10:21:08;;;;;;;6.30;5.30;;;17.70;99.90;;;;;;4958411;28;20652;-87
2022/06/02 10:23:56;;;;;;;7.33;5.60;;;17.80;36.30;;;;;;4974403;28;20222;-88
2022/06/02 10:26:39;;;;;;;7.00;5.10;;;17.90;26.60;;;;;;4974752;28;20224;-87
2022/06/02 10:29:39;;;;;;;8.67;5.50;;;17.90;1.00;;;;;;4958187;28;20203;-87
2022/06/02 10:32:36;;;;;;;7.67;5.87;;;17.70;61.50;;;;;;4973830;28;20176;-87
2022/06/02 10:35:04;;;;;;;5.77;4.97;;;17.90;15.20;;;;;;4973035;28;20238;-87
2022/06/02 10:37:39;;;;;;;11.57;5.50;;;18.20;15.10;;;;;;4973243;28;20166;-88
2022/06/02 10:40:32;;;;;;;5.53;4.23;;;18.50;1.00;;;;;;4974691;28;20186;-88
2022/06/02 10:43:36;;;;;;;7.50;5.13;;;19.00;99.90;;;;;;4973598;28;20176;-87
2022/06/02 10:46:11;;;;;;;7.40;4.87;;;19.20;1.00;;;;;;4959543;28;20184;-88
2022/06/02 10:48:36;;;;;;;6.53;5.00;;;19.10;1.00;;;;;;4973538;28;20267;-87
2022/06/02 10:51:11;;;;;;;5.70;4.70;;;18.90;1.00;;;;;;4973489;28;20624;-88
2022/06/02 10:53:58;;;;;;;5.33;4.70;;;18.90;39.60;;;;;;4972706;28;20207;-87
2022/06/02 10:57:01;;;;;;;5.70;4.33;;;18.60;99.90;;;;;;4974005;28;20191;-87
2022/06/02 11:00:05;;;;;;;7.97;4.80;;;18.40;99.90;;;;;;4974619;28;20256;-87
2022/06/02 11:03:15;;;;;;;9.47;5.10;;;18.30;1.00;;;;;;4973524;28;20180;-87
2022/06/02 11:05:59;;;;;;;8.27;3.93;;;18.20;1.00;;;;;;4863256;29;20549;-88
2022/06/02 11:08:43;;;;;;;5.60;3.60;;;18.20;1.00;;;;;;4865257;29;20187;-88
2022/06/02 11:11:33;;;;;;;8.93;5.07;;;18.00;99.90;;;;;;4934612;28;20210;-87
2022/06/02 11:14:19;;;;;;;5.67;4.37;;;18.00;1.00;;;;;;4980889;28;20244;-87
2022/06/02 11:17:29;;;;;;;16.37;5.67;;;18.20;99.90;;;;;;4960927;28;20175;-88
2022/06/02 11:20:03;;;;;;;5.50;4.73;;;18.50;1.00;;;;;;4962640;28;20243;-88
2022/06/02 11:22:57;;;;;;;8.00;5.00;;;18.50;1.00;;;;;;4994265;28;20592;-88
2022/06/02 11:25:45;;;;;;;6.20;4.63;;;18.50;55.70;;;;;;5001379;28;20267;-87
2022/06/02 11:28:23;;;;;;;7.13;4.43;;;18.50;1.00;;;;;;5002430;28;20190;-88
2022/06/02 11:31:26;;;;;;;5.00;4.50;;;18.60;1.00;;;;;;5008298;28;20178;-88
2022/06/02 11:34:26;;;;;;;8.53;4.40;;;18.80;99.90;;;;;;5009503;28;20205;-87
2022/06/02 11:37:14;;;;;;;6.60;4.90;;;18.90;1.00;;;;;;5008814;28;20185;-87
2022/06/02 11:39:42;;;;;;;7.43;4.80;;;18.50;99.90;;;;;;5008786;28;20170;-87
2022/06/02 11:42:17;;;;;;;7.93;4.27;;;18.40;1.00;;;;;;5010629;28;20187;-88
2022/06/02 11:45:08;;;;;;;7.53;5.00;;;18.50;75.60;;;;;;5003657;28;20268;-87
2022/06/02 11:47:58;;;;;;;4.93;4.40;;;18.70;1.00;;;;;;5004410;28;20178;-87
2022/06/02 11:50:42;;;;;;;6.47;4.30;;;18.90;99.90;;;;;;5000712;28;20200;-87
2022/06/02 11:53:46;;;;;;;6.80;4.43;;;18.90;99.90;;;;;;5002637;28;20185;-86
2022/06/02 11:56:30;;;;;;;5.83;4.30;;;18.90;99.90;;;;;;4915246;28;20194;-88
2022/06/02 11:59:14;;;;;;;5.80;3.60;;;18.80;99.90;;;;;;5010484;28;20261;-85
2022/06/02 12:01:50;;;;;;;6.60;3.90;;;18.80;1.00;;;;;;5006529;28;20198;-87
2022/06/02 12:04:46;;;;;;;7.20;4.10;;;19.00;1.00;;;;;;5000292;28;20202;-87
2022/06/02 12:07:18;;;;;;;7.07;4.00;;;19.30;99.90;;;;;;5003030;28;20194;-87
2022/06/02 12:10:21;;;;;;;5.00;3.97;;;19.60;55.80;;;;;;4981206;28;20168;-87
2022/06/02 12:13:07;;;;;;;5.83;4.17;;;19.50;1.00;;;;;;4979480;28;20181;-87
2022/06/02 12:15:48;;;;;;;5.80;4.10;;;19.20;1.00;;;;;;4980272;28;20178;-88
2022/06/02 12:18:20;;;;;;;4.07;3.37;;;18.80;99.90;;;;;;4982426;28;20261;-86
2022/06/02 12:21:08;;;;;;;4.67;3.93;;;18.80;99.90;;;;;;4995876;28;20236;-88
2022/06/02 12:24:02;;;;;;;4.17;3.73;;;19.00;99.90;;;;;;4981156;28;20229;-88
2022/06/02 12:26:37;;;;;;;7.67;4.27;;;19.20;99.90;;;;;;4955339;28;20205;-88
2022/06/02 12:29:33;;;;;;;4.13;3.70;;;19.20;99.90;;;;;;4981689;28;20181;-87
2022/06/02 12:32:08;;;;;;;4.80;4.23;;;19.10;99.90;;;;;;4980344;28;20199;-89
2022/06/02 12:34:50;;;;;;;4.77;4.07;;;19.30;1.00;;;;;;4980588;28;20213;-85
2022/06/02 12:37:31;;;;;;;5.83;3.87;;;19.40;1.00;;;;;;4980001;28;20171;-86
2022/06/02 12:40:16;;;;;;;6.17;4.10;;;19.40;92.70;;;;;;4989486;28;20202;-88
2022/06/02 12:43:20;;;;;;;4.70;3.43;;;19.40;1.00;;;;;;4991254;28;20171;-87
2022/06/02 12:45:57;;;;;;;4.33;3.50;;;19.40;1.00;;;;;;4989903;28;20177;-87
2022/06/02 12:49:08;;;;;;;8.83;3.43;;;19.50;99.90;;;;;;4992201;28;20250;-87
2022/06/02 12:51:57;;;;;;;4.87;3.33;;;19.70;99.90;;;;;;4999630;28;20218;-87
2022/06/02 12:54:49;;;;;;;4.47;3.13;;;19.60;1.00;;;;;;4984011;28;20623;-87
2022/06/02 12:57:53;;;;;;;4.47;3.60;;;19.50;1.00;;;;;;4979406;28;20217;-87
2022/06/02 13:00:37;;;;;;;4.00;3.23;;;19.50;1.00;;;;;;4932545;29;20213;-88
2022/06/02 13:03:40;;;;;;;4.37;3.00;;;19.70;1.00;;;;;;4971528;28;20730;-87
2022/06/02 13:06:43;;;;;;;5.97;3.60;;;19.90;99.90;;;;;;4978968;28;20181;-86
2022/06/02 13:09:21;;;;;;;4.87;3.80;;;20.00;1.00;;;;;;4978091;28;20175;-87
2022/06/02 13:12:20;;;;;;;5.27;3.37;;;19.90;1.00;;;;;;4978033;28;20219;-87
2022/06/02 13:15:08;;;;;;;5.37;3.13;;;20.00;1.00;;;;;;4978298;28;20218;-86
2022/06/02 13:17:52;;;;;;;6.00;3.20;;;20.00;99.90;;;;;;4981071;28;20168;-86
2022/06/02 13:20:53;;;;;;;6.23;2.70;;;20.10;1.00;;;;;;4993761;28;20187;-85
2022/06/02 13:23:41;;;;;;;5.30;3.03;;;20.00;99.90;;;;;;5000562;28;20246;-86
2022/06/02 13:26:12;;;;;;;2.70;2.50;;;20.10;1.00;;;;;;4998845;28;20226;-86
2022/06/02 13:29:09;;;;;;;5.10;2.73;;;20.30;99.90;;;;;;4987341;28;20192;-85
2022/06/02 13:32:14;;;;;;;5.07;3.00;;;20.60;99.90;;;;;;4988290;28;20204;-85
2022/06/02 13:35:16;;;;;;;3.40;2.80;;;20.50;99.90;;;;;;4996390;28;20248;-86
2022/06/02 13:37:51;;;;;;;4.03;2.70;;;20.50;1.00;;;;;;4978568;28;20655;-85
2022/06/02 13:41:01;;;;;;;4.47;3.17;;;20.80;1.00;;;;;;4978671;28;20267;-86
2022/06/02 13:43:33;;;;;;;4.10;2.93;;;21.30;1.00;;;;;;4980618;28;20184;-87
2022/06/02 13:46:25;;;;;;;5.10;2.43;;;21.80;1.00;;;;;;4978268;28;20209;-84
2022/06/02 13:48:53;;;;;;;4.63;2.30;;;22.20;1.00;;;;;;4979020;28;20180;-87
2022/06/02 13:51:23;;;;;;;5.50;3.23;;;22.20;99.90;;;;;;4977940;28;20265;-87
2022/06/02 13:57:42;;;;;;;5.13;3.50;;;21.70;37.10;;;;;;5006217;28;20241;-86
2022/06/02 14:00:25;;;;;;;6.10;2.90;;;21.70;99.90;;;;;;4966589;28;20162;-87
2022/06/02 14:03:21;;;;;;;4.00;2.70;;;21.60;85.10;;;;;;4977776;28;20190;-86
2022/06/02 14:06:05;;;;;;;3.30;2.63;;;21.30;41.30;;;;;;4991527;28;20741;-87
2022/06/02 14:08:42;;;;;;;4.87;2.60;;;21.20;99.90;;;;;;4990404;28;20200;-87
2022/06/02 14:11:35;;;;;;;6.03;2.30;;;21.40;99.90;;;;;;4978200;28;20175;-87
2022/06/02 14:14:15;;;;;;;5.60;2.50;;;21.90;99.90;;;;;;4986970;28;20209;-88
2022/06/02 14:17:24;;;;;;;3.10;2.47;;;22.30;99.90;;;;;;4996365;28;20216;-86
2022/06/02 14:20:11;;;;;;;3.10;2.43;;;22.10;1.00;;;;;;4974566;28;20713;-88
2022/06/02 14:22:55;;;;;;;3.07;2.10;;;22.50;1.00;;;;;;4959322;28;20625;-87
2022/06/02 14:25:53;;;;;;;4.07;2.90;;;23.00;1.00;;;;;;4957905;28;20217;-86
2022/06/02 14:28:46;;;;;;;3.93;2.73;;;22.50;1.00;;;;;;4977004;28;20272;-87